Time;durP1;ratioP1;P1;durP2;ratioP2;P2;SDS_P1;SDS_P2;PMS_P1;PMS_P2;Temp;Humidity;BMP_temperature;BMP_pressure;BME280_temperature;BME280_humidity;BME280_pressure;Samples;Min_cycle;Max_cycle;Signal;HPM_P1;HPM_P2
2021/09/26 00:00:04;;;;;;;8.53;7.60;;;18.70;99.90;;;;;;6139360;23;20403;-84
2021/09/26 00:02:31;;;;;;;10.17;7.70;;;18.70;99.90;;;;;;6139118;23;20427;-83
2021/09/26 00:04:58;;;;;;;8.33;7.73;;;18.70;99.90;;;;;;6142397;23;20408;-83
2021/09/26 00:07:25;;;;;;;8.17;7.43;;;18.70;99.90;;;;;;6140181;23;20494;-84
2021/09/26 00:09:52;;;;;;;7.63;6.97;;;18.70;99.90;;;;;;6140429;23;20400;-82
2021/09/26 00:12:19;;;;;;;8.60;7.80;;;18.60;99.90;;;;;;6140880;23;20478;-83
2021/09/26 00:14:47;;;;;;;8.60;7.90;;;18.60;99.90;;;;;;6141070;23;20451;-84
2021/09/26 00:17:14;;;;;;;7.57;6.93;;;18.70;99.90;;;;;;6139685;23;20413;-84
2021/09/26 00:19:41;;;;;;;6.83;6.30;;;18.70;99.90;;;;;;6140293;23;20415;-84
2021/09/26 00:22:08;;;;;;;9.17;8.37;;;18.80;99.90;;;;;;6138785;23;20530;-84
2021/09/26 00:24:35;;;;;;;7.23;6.67;;;18.90;99.90;;;;;;6138883;23;20426;-82
2021/09/26 00:27:02;;;;;;;8.00;7.50;;;18.80;99.90;;;;;;6137443;23;21042;-84
2021/09/26 00:29:29;;;;;;;8.47;7.60;;;18.90;99.90;;;;;;6138787;23;20411;-83
2021/09/26 00:31:57;;;;;;;8.03;7.43;;;18.80;99.90;;;;;;6137878;23;20458;-83
2021/09/26 00:34:24;;;;;;;7.60;7.03;;;18.70;99.90;;;;;;6137141;23;20494;-85
2021/09/26 00:36:51;;;;;;;9.10;8.23;;;18.70;99.90;;;;;;6134860;23;20418;-83
2021/09/26 00:39:17;;;;;;;7.83;7.23;;;18.70;99.90;;;;;;6136438;23;20418;-83
2021/09/26 00:41:44;;;;;;;7.40;6.80;;;18.80;99.90;;;;;;6136401;23;20441;-84
2021/09/26 00:44:11;;;;;;;8.90;8.10;;;18.80;99.90;;;;;;6136630;23;20921;-84
2021/09/26 00:46:38;;;;;;;8.60;7.70;;;18.80;99.90;;;;;;6136614;23;20422;-83
2021/09/26 00:49:06;;;;;;;8.17;7.50;;;18.80;99.90;;;;;;6136136;23;20418;-85
2021/09/26 00:51:33;;;;;;;8.73;8.03;;;18.80;99.90;;;;;;6135831;23;20457;-84
2021/09/26 00:54:00;;;;;;;7.90;7.23;;;18.70;99.90;;;;;;6138603;23;20403;-83
2021/09/26 00:56:30;;;;;;;8.53;7.63;;;18.80;99.90;;;;;;6141918;23;20487;-84
2021/09/26 00:58:56;;;;;;;8.00;7.30;;;18.80;99.90;;;;;;6142269;23;20694;-83
2021/09/26 01:01:23;;;;;;;10.50;7.03;;;18.90;99.90;;;;;;6136178;23;20427;-83
2021/09/26 01:03:50;;;;;;;9.97;7.30;;;18.90;99.90;;;;;;6137004;23;20478;-83
2021/09/26 01:06:39;;;;;;;8.73;7.60;;;18.90;99.90;;;;;;6137750;23;20417;-84
2021/09/26 01:09:13;;;;;;;7.97;7.27;;;18.90;99.90;;;;;;6138074;23;20471;-83
2021/09/26 01:11:52;;;;;;;9.60;8.10;;;18.80;99.90;;;;;;6136263;23;21000;-84
2021/09/26 01:14:24;;;;;;;8.80;8.00;;;18.90;99.90;;;;;;6135171;23;20423;-83
2021/09/26 01:17:05;;;;;;;10.33;8.10;;;19.00;99.90;;;;;;6136301;23;20486;-84
2021/09/26 01:19:45;;;;;;;8.60;7.90;;;19.00;99.90;;;;;;6135438;23;20407;-84
2021/09/26 01:22:20;;;;;;;8.20;7.50;;;19.00;99.90;;;;;;6137676;23;20441;-84
2021/09/26 01:25:13;;;;;;;8.17;7.50;;;19.00;99.90;;;;;;6137061;23;20723;-84
2021/09/26 01:28:02;;;;;;;8.17;7.40;;;19.20;99.90;;;;;;6136780;23;20405;-84
2021/09/26 01:30:38;;;;;;;8.83;8.03;;;19.10;99.90;;;;;;6137330;23;20393;-84
2021/09/26 01:33:10;;;;;;;7.20;6.70;;;19.10;99.90;;;;;;6137551;23;20990;-84
2021/09/26 01:35:50;;;;;;;7.97;7.27;;;19.10;99.90;;;;;;6137717;23;20390;-83
2021/09/26 01:38:24;;;;;;;8.03;7.37;;;19.00;99.90;;;;;;6137834;23;20392;-84
2021/09/26 01:40:53;;;;;;;7.10;6.50;;;18.90;99.90;;;;;;6136090;23;20407;-84
2021/09/26 01:43:26;;;;;;;11.07;8.90;;;18.90;99.90;;;;;;6137472;23;20415;-84
2021/09/26 01:45:57;;;;;;;7.70;7.10;;;18.90;99.90;;;;;;6138272;23;20716;-84
2021/09/26 01:48:35;;;;;;;7.57;6.97;;;18.90;99.90;;;;;;6137515;23;20411;-83
2021/09/26 01:51:03;;;;;;;8.40;7.70;;;18.90;99.90;;;;;;6137780;23;20399;-84
2021/09/26 01:53:31;;;;;;;8.17;7.43;;;18.90;99.90;;;;;;6136108;23;20970;-85
2021/09/26 01:55:59;;;;;;;8.20;7.30;;;18.80;99.90;;;;;;6136897;23;20412;-85
2021/09/26 01:58:28;;;;;;;9.10;8.30;;;18.70;99.90;;;;;;6139437;23;20411;-84
2021/09/26 02:00:56;;;;;;;6.73;6.20;;;18.70;99.90;;;;;;6139690;23;20501;-82
2021/09/26 02:03:24;;;;;;;8.90;8.27;;;18.60;99.90;;;;;;6138909;23;20485;-84
2021/09/26 02:05:53;;;;;;;8.20;7.47;;;18.50;99.90;;;;;;6138072;23;20418;-84
2021/09/26 02:08:20;;;;;;;7.40;6.80;;;18.40;99.90;;;;;;6137731;23;20428;-84
2021/09/26 02:10:49;;;;;;;7.87;7.17;;;18.40;99.90;;;;;;6137279;23;20407;-84
2021/09/26 02:13:16;;;;;;;8.17;7.37;;;18.30;99.90;;;;;;6137740;23;20447;-84
2021/09/26 02:15:44;;;;;;;7.73;7.13;;;18.40;99.90;;;;;;6137421;23;20494;-84
2021/09/26 02:18:13;;;;;;;9.47;8.47;;;18.40;99.90;;;;;;6137898;23;20438;-84
2021/09/26 02:20:40;;;;;;;8.90;8.10;;;18.50;99.90;;;;;;6137636;23;20399;-83
2021/09/26 02:23:08;;;;;;;8.10;7.40;;;18.50;99.90;;;;;;6137733;23;20430;-83
2021/09/26 02:25:35;;;;;;;8.53;7.83;;;18.50;99.90;;;;;;6137779;23;20416;-84
2021/09/26 02:28:03;;;;;;;8.97;8.17;;;18.40;99.90;;;;;;6138589;23;20891;-83
2021/09/26 02:30:30;;;;;;;9.93;8.60;;;18.50;99.90;;;;;;6138318;23;20746;-84
2021/09/26 02:32:56;;;;;;;8.10;6.83;;;18.50;99.90;;;;;;6136700;23;20451;-84
2021/09/26 02:35:25;;;;;;;8.63;7.83;;;18.50;99.90;;;;;;6136731;23;20502;-85
2021/09/26 02:37:52;;;;;;;9.10;8.03;;;18.50;99.90;;;;;;6135512;23;20490;-84
2021/09/26 02:40:20;;;;;;;8.67;7.77;;;18.50;99.90;;;;;;6135448;23;20414;-83
2021/09/26 02:47:11;;;;;;;11.43;9.00;;;18.40;99.90;;;;;;6161717;23;20375;-85
2021/09/26 02:50:14;;;;;;;9.27;7.87;;;18.30;99.90;;;;;;6087556;23;20452;-85
2021/09/26 06:48:41;;;;;;;10.03;9.23;;;17.30;99.90;;;;;;6134965;23;20719;-85
2021/09/26 06:51:07;;;;;;;16.40;12.30;;;17.40;99.90;;;;;;6135737;23;20481;-88
2021/09/26 06:53:34;;;;;;;11.07;10.17;;;17.50;99.90;;;;;;6135885;23;20863;-87
2021/09/26 06:56:01;;;;;;;10.93;9.93;;;17.50;99.90;;;;;;6132607;23;20410;-87
2021/09/26 06:58:28;;;;;;;11.00;10.00;;;17.50;99.90;;;;;;6134693;23;20922;-87
2021/09/26 07:00:54;;;;;;;10.33;8.80;;;17.60;99.90;;;;;;6134887;23;20419;-85
2021/09/26 07:03:21;;;;;;;10.73;9.67;;;17.70;99.90;;;;;;6135037;23;20431;-85
2021/09/26 07:05:49;;;;;;;12.00;10.70;;;17.80;99.90;;;;;;6131349;23;20419;-86
2021/09/26 07:08:16;;;;;;;11.97;10.73;;;17.80;99.90;;;;;;6130017;23;20411;-86
2021/09/26 07:10:43;;;;;;;13.10;9.20;;;17.90;99.90;;;;;;6130800;23;20430;-86
2021/09/26 07:13:10;;;;;;;10.83;9.73;;;18.10;99.90;;;;;;6132672;23;20450;-86
2021/09/26 07:15:36;;;;;;;11.80;10.47;;;18.20;99.90;;;;;;6133058;23;20418;-86
2021/09/26 07:18:04;;;;;;;11.33;10.23;;;18.30;99.90;;;;;;6132884;23;20418;-86
2021/09/26 07:20:31;;;;;;;12.37;10.10;;;18.40;99.90;;;;;;6132219;23;20423;-87
2021/09/26 07:23:00;;;;;;;10.83;9.80;;;18.50;99.90;;;;;;6131435;23;20445;-87
2021/09/26 07:25:29;;;;;;;11.17;10.10;;;18.60;99.90;;;;;;6130344;23;20417;-87
2021/09/26 07:27:57;;;;;;;10.40;9.53;;;18.80;99.90;;;;;;6133397;23;20418;-86
2021/09/26 07:30:29;;;;;;;10.30;9.20;;;19.10;99.90;;;;;;6135129;23;20402;-86
2021/09/26 07:32:56;;;;;;;11.47;10.33;;;19.20;99.90;;;;;;6131348;23;20957;-87
2021/09/26 07:35:23;;;;;;;9.03;8.13;;;19.30;99.90;;;;;;6130567;23;20404;-86
2021/09/26 07:37:50;;;;;;;13.00;11.60;;;19.40;99.90;;;;;;6130844;23;20406;-85
2021/09/26 07:40:20;;;;;;;10.10;9.20;;;19.40;99.90;;;;;;6131650;23;20422;-85
2021/09/26 07:42:46;;;;;;;9.00;8.30;;;19.50;99.90;;;;;;6131277;23;20428;-86
2021/09/26 07:45:14;;;;;;;10.27;9.30;;;19.70;99.90;;;;;;6130680;23;20959;-86
2021/09/26 07:47:42;;;;;;;8.07;7.30;;;19.80;99.90;;;;;;6131962;23;20408;-86
2021/09/26 07:50:10;;;;;;;10.23;9.27;;;19.90;99.90;;;;;;6132527;23;20418;-85
2021/09/26 07:52:37;;;;;;;9.60;8.67;;;20.10;99.90;;;;;;6128927;23;20462;-86
2021/09/26 07:55:05;;;;;;;8.33;7.60;;;20.10;99.90;;;;;;6129539;23;20915;-86
2021/09/26 07:57:33;;;;;;;8.30;7.50;;;20.20;99.90;;;;;;6128590;23;20416;-86
2021/09/26 08:00:03;;;;;;;8.23;7.53;;;20.40;99.90;;;;;;6132140;23;20416;-86
2021/09/26 08:02:31;;;;;;;8.40;7.60;;;20.40;99.90;;;;;;6133910;23;20500;-86
2021/09/26 08:04:59;;;;;;;8.30;7.37;;;20.20;99.90;;;;;;6131423;23;20982;-86
2021/09/26 08:07:26;;;;;;;8.30;7.60;;;20.40;99.90;;;;;;6131079;23;20408;-86
2021/09/26 08:09:53;;;;;;;8.47;7.80;;;20.60;99.90;;;;;;6130076;23;20420;-86
2021/09/26 08:12:20;;;;;;;7.63;6.67;;;20.60;99.90;;;;;;6129736;23;20421;-86
2021/09/26 08:14:53;;;;;;;8.10;7.33;;;20.60;99.90;;;;;;6129179;23;20412;-86
2021/09/26 08:17:20;;;;;;;8.83;7.93;;;20.80;99.90;;;;;;6126936;23;20383;-86
2021/09/26 08:19:47;;;;;;;8.33;7.20;;;20.90;99.90;;;;;;6131250;23;20406;-86
2021/09/26 08:22:14;;;;;;;7.90;7.10;;;21.00;99.90;;;;;;6135246;23;20457;-87
2021/09/26 08:24:41;;;;;;;8.33;7.60;;;20.90;99.90;;;;;;6136671;23;20416;-86
2021/09/26 08:27:08;;;;;;;8.47;7.40;;;20.90;99.90;;;;;;6136085;23;20446;-86
2021/09/26 08:29:35;;;;;;;8.33;7.50;;;20.90;99.90;;;;;;6136688;23;20470;-86
2021/09/26 08:32:05;;;;;;;9.47;7.80;;;20.90;99.90;;;;;;6137021;23;20456;-86
2021/09/26 08:34:40;;;;;;;10.40;7.47;;;20.90;99.90;;;;;;6134465;23;20506;-87
2021/09/26 09:20:22;;;;;;;7.27;6.67;;;21.20;99.90;;;;;;6017014;23;20562;-86
2021/09/26 09:22:51;;;;;;;11.50;8.90;;;21.10;99.90;;;;;;6135351;23;20524;-87
2021/09/26 09:25:40;;;;;;;8.93;7.67;;;21.10;99.90;;;;;;6136375;23;20381;-86
2021/09/26 09:28:09;;;;;;;9.60;8.60;;;21.00;99.90;;;;;;6135716;23;20396;-86
2021/09/26 09:30:41;;;;;;;9.10;8.40;;;20.90;99.90;;;;;;6133844;23;20401;-86
2021/09/26 09:33:10;;;;;;;9.80;8.90;;;20.60;99.90;;;;;;6136181;23;20468;-85
2021/09/26 09:35:39;;;;;;;9.23;8.30;;;20.70;99.90;;;;;;6137016;23;20428;-84
2021/09/26 09:38:07;;;;;;;10.20;9.33;;;20.60;99.90;;;;;;6138692;23;20411;-83
2021/09/26 09:40:34;;;;;;;10.70;9.77;;;20.60;99.90;;;;;;6139585;23;20412;-83
2021/09/26 09:43:21;;;;;;;;;;;;;;;;;;;;;
2021/09/26 09:45:52;;;;;;;10.70;9.67;;;20.50;99.90;;;;;;6126175;23;20798;-81
2021/09/26 09:48:21;;;;;;;10.47;9.37;;;20.50;99.90;;;;;;6127813;23;20488;-81
2021/09/26 09:50:54;;;;;;;10.47;9.53;;;20.40;99.90;;;;;;6141971;23;20423;-82
2021/09/26 09:53:31;;;;;;;10.43;9.53;;;20.20;99.90;;;;;;6143010;23;20475;-84
2021/09/26 09:56:00;;;;;;;11.47;10.47;;;20.20;99.90;;;;;;6142429;23;20392;-83
2021/09/26 09:58:33;;;;;;;11.63;10.30;;;20.30;99.90;;;;;;6143680;23;20502;-83
2021/09/26 10:01:00;;;;;;;10.80;9.70;;;20.20;99.90;;;;;;6142538;23;20434;-83
2021/09/26 10:03:36;;;;;;;12.47;11.17;;;20.00;99.90;;;;;;6137283;23;20507;-84
2021/09/26 10:06:06;;;;;;;14.13;12.80;;;19.80;99.90;;;;;;6140462;23;20392;-83
2021/09/26 10:08:33;;;;;;;13.33;12.03;;;19.80;99.90;;;;;;6142790;23;20478;-83
2021/09/26 10:11:10;;;;;;;13.50;12.10;;;19.80;99.90;;;;;;6143513;23;20746;-83
2021/09/26 10:13:38;;;;;;;10.60;9.60;;;19.60;99.90;;;;;;6142071;23;20454;-81
2021/09/26 10:16:07;;;;;;;13.10;11.67;;;19.30;99.90;;;;;;6141325;23;20868;-83
2021/09/26 10:18:38;;;;;;;14.83;13.10;;;19.20;99.90;;;;;;6141722;23;20395;-82
2021/09/26 10:21:07;;;;;;;12.43;11.27;;;19.10;99.90;;;;;;6132076;23;20406;-83
2021/09/26 10:23:34;;;;;;;12.00;11.00;;;19.10;99.90;;;;;;6136736;23;20427;-82
2021/09/26 10:26:02;;;;;;;17.57;11.80;;;19.20;99.90;;;;;;6133518;23;20411;-83
2021/09/26 10:28:33;;;;;;;11.10;9.70;;;19.40;99.90;;;;;;6136139;23;20419;-85
2021/09/26 10:31:03;;;;;;;12.70;11.50;;;19.30;99.90;;;;;;6139770;23;20403;-84
2021/09/26 10:33:31;;;;;;;11.60;10.53;;;19.20;99.90;;;;;;6136494;23;20454;-84
2021/09/26 10:36:01;;;;;;;13.43;12.00;;;19.20;99.90;;;;;;6146164;23;20416;-84
2021/09/26 10:38:29;;;;;;;11.20;10.20;;;19.40;99.90;;;;;;6144707;23;20490;-84
2021/09/26 10:40:55;;;;;;;13.90;12.60;;;19.70;99.90;;;;;;6143567;23;20411;-84
2021/09/26 10:43:26;;;;;;;12.73;11.63;;;19.70;99.90;;;;;;6144415;23;20498;-84
2021/09/26 10:46:13;;;;;;;12.47;11.17;;;19.90;99.90;;;;;;6145512;23;20392;-82
2021/09/26 10:49:09;;;;;;;11.77;10.67;;;20.10;99.90;;;;;;6143398;23;20422;-83
2021/09/26 10:51:52;;;;;;;9.90;9.00;;;20.40;99.90;;;;;;6142719;23;20416;-83
2021/09/26 10:54:36;;;;;;;10.17;9.27;;;20.30;99.90;;;;;;6142585;23;20427;-84
2021/09/26 10:57:30;;;;;;;10.43;9.57;;;20.30;99.90;;;;;;6141938;23;20421;-84
2021/09/26 10:59:59;;;;;;;9.97;8.73;;;20.30;99.90;;;;;;6109932;23;20513;-84
2021/09/26 11:02:46;;;;;;;10.43;9.00;;;20.30;99.90;;;;;;6136136;23;20432;-83
2021/09/26 11:05:38;;;;;;;9.40;8.60;;;20.30;99.90;;;;;;6133692;23;20471;-83
2021/09/26 11:08:10;;;;;;;10.33;9.40;;;20.10;99.90;;;;;;6133025;23;20720;-83
2021/09/26 11:10:43;;;;;;;9.23;8.43;;;19.90;99.90;;;;;;6133094;23;20399;-83
2021/09/26 11:13:14;;;;;;;9.40;8.57;;;19.90;99.90;;;;;;6130606;23;20978;-83
2021/09/26 11:16:13;;;;;;;10.97;9.87;;;19.90;99.90;;;;;;6135822;23;20511;-85
2021/09/26 11:19:12;;;;;;;10.20;9.30;;;20.00;99.90;;;;;;6142087;23;20392;-85
2021/09/26 11:22:04;;;;;;;10.60;9.30;;;20.00;99.90;;;;;;6142784;23;20479;-84
2021/09/26 11:24:44;;;;;;;11.93;10.73;;;20.00;99.90;;;;;;6144408;23;20404;-84
2021/09/26 11:27:14;;;;;;;10.87;9.87;;;20.10;99.90;;;;;;6146602;23;20459;-83
2021/09/26 11:30:27;;;;;;;9.80;9.00;;;20.10;99.90;;;;;;6142048;23;20400;-84
2021/09/26 11:33:12;;;;;;;12.03;10.80;;;20.30;99.90;;;;;;6142757;23;20435;-85
2021/09/26 11:35:40;;;;;;;11.93;10.77;;;20.40;99.90;;;;;;6142205;23;20419;-84
2021/09/26 11:38:10;;;;;;;11.70;10.70;;;20.60;99.90;;;;;;6135714;23;20880;-85
2021/09/26 11:41:04;;;;;;;12.67;11.57;;;20.70;99.90;;;;;;6132004;23;20402;-85
2021/09/26 11:43:37;;;;;;;10.27;9.27;;;20.80;99.90;;;;;;6133194;23;20779;-85
2021/09/26 11:46:23;;;;;;;11.00;10.00;;;20.80;99.90;;;;;;6132963;23;20404;-85
2021/09/26 11:48:50;;;;;;;11.53;9.87;;;20.90;99.90;;;;;;6134424;23;20444;-85
2021/09/26 11:51:21;;;;;;;10.23;9.33;;;21.10;99.90;;;;;;6137750;23;20444;-85
2021/09/26 11:53:48;;;;;;;10.70;9.70;;;21.30;99.90;;;;;;6131534;23;20457;-86
2021/09/26 11:56:20;;;;;;;10.17;9.30;;;21.40;99.90;;;;;;6131341;23;20499;-84
2021/09/26 11:58:48;;;;;;;8.73;8.03;;;21.60;99.90;;;;;;6131017;23;20453;-85
2021/09/26 12:01:14;;;;;;;9.87;9.07;;;21.70;99.90;;;;;;6131374;23;20421;-85
2021/09/26 12:03:41;;;;;;;9.63;8.73;;;21.80;99.90;;;;;;6130382;23;20986;-85
2021/09/26 12:06:19;;;;;;;9.20;8.40;;;21.90;99.90;;;;;;6128913;23;20413;-88
2021/09/26 12:13:01;;;;;;;10.13;9.13;;;22.20;99.90;;;;;;5980870;24;20417;-87
2021/09/26 12:16:15;;;;;;;8.53;7.73;;;22.40;99.90;;;;;;5898774;24;20482;-86
2021/09/26 17:44:30;;;;;;;15.87;13.27;;;18.50;99.90;;;;;;5963530;23;20471;-87
2021/09/26 17:46:58;;;;;;;11.13;10.17;;;18.50;99.90;;;;;;5975513;24;20435;-84
2021/09/26 18:00:04;;;;;;;13.27;12.17;;;18.40;99.90;;;;;;5937006;23;21157;-84
2021/09/26 18:02:40;;;;;;;14.70;13.53;;;18.50;99.90;;;;;;6071339;23;20459;-84
2021/09/26 18:08:10;;;;;;;14.10;12.70;;;18.70;99.90;;;;;;6032453;23;20831;-84
2021/09/26 18:10:50;;;;;;;14.97;13.63;;;18.50;99.90;;;;;;6071184;23;20445;-84
2021/09/26 18:13:38;;;;;;;14.53;13.07;;;18.50;99.90;;;;;;6071192;23;20461;-84
2021/09/26 18:20:08;;;;;;;13.37;12.07;;;18.30;99.90;;;;;;6066825;23;20411;-84
2021/09/26 18:36:31;;;;;;;12.77;11.57;;;17.70;99.90;;;;;;6023410;23;20409;-83
2021/09/26 18:38:58;;;;;;;12.33;11.07;;;17.70;99.90;;;;;;6071236;23;20432;-84
2021/09/26 18:41:29;;;;;;;12.87;11.47;;;17.70;99.90;;;;;;6070187;23;20428;-83
2021/09/26 18:43:57;;;;;;;11.83;10.47;;;17.70;99.90;;;;;;6066772;23;20424;-82
2021/09/26 18:46:24;;;;;;;9.70;8.80;;;17.80;99.90;;;;;;6068160;23;20628;-82
2021/09/26 18:48:51;;;;;;;10.50;9.57;;;17.70;99.90;;;;;;6070996;23;20483;-83
2021/09/26 18:51:21;;;;;;;13.30;12.07;;;17.80;99.90;;;;;;6070339;23;20440;-83
2021/09/26 18:53:51;;;;;;;10.63;9.60;;;17.90;99.90;;;;;;6071447;23;20458;-83
2021/09/26 18:56:20;;;;;;;12.40;10.70;;;17.90;99.90;;;;;;6071547;23;20471;-83
2021/09/26 18:58:48;;;;;;;12.40;10.13;;;17.80;99.90;;;;;;6071121;23;20430;-83
2021/09/26 19:01:17;;;;;;;12.60;11.40;;;18.00;99.90;;;;;;6072290;23;20418;-83
2021/09/26 19:03:44;;;;;;;10.40;9.50;;;18.10;99.90;;;;;;6072614;23;20436;-83
2021/09/26 19:06:11;;;;;;;11.93;10.93;;;18.20;99.90;;;;;;6071582;23;20413;-83
2021/09/26 19:08:39;;;;;;;12.67;11.47;;;18.20;99.90;;;;;;6072404;23;20427;-83
2021/09/26 19:11:12;;;;;;;11.77;10.67;;;17.90;99.90;;;;;;6072176;23;20507;-83
2021/09/26 19:13:40;;;;;;;14.27;12.20;;;17.80;99.90;;;;;;6072176;23;20530;-83
2021/09/26 19:16:07;;;;;;;13.33;11.97;;;17.70;99.90;;;;;;6070922;23;20530;-83
2021/09/26 19:18:35;;;;;;;11.40;10.47;;;17.70;99.90;;;;;;6072673;23;20483;-83
2021/09/26 19:21:04;;;;;;;12.60;11.50;;;17.70;99.90;;;;;;6071035;23;20414;-84
2021/09/26 19:23:30;;;;;;;11.60;10.47;;;17.60;99.90;;;;;;6072540;23;20442;-83
2021/09/26 19:25:58;;;;;;;12.07;10.97;;;17.80;99.90;;;;;;6071331;23;20416;-84
2021/09/26 19:28:31;;;;;;;11.10;10.00;;;17.90;99.90;;;;;;6071901;23;20818;-84
2021/09/26 19:31:00;;;;;;;11.90;10.50;;;18.00;99.90;;;;;;6071744;23;20399;-84
2021/09/26 19:33:29;;;;;;;12.70;11.50;;;18.10;99.90;;;;;;6070575;23;20432;-84
2021/09/26 19:35:56;;;;;;;11.73;10.57;;;18.20;99.90;;;;;;6070559;23;20578;-85
2021/09/26 19:38:23;;;;;;;11.53;10.50;;;18.20;99.90;;;;;;6070917;23;20507;-84
2021/09/26 19:40:50;;;;;;;13.00;11.90;;;18.20;99.90;;;;;;6071710;23;20507;-84
2021/09/26 19:43:18;;;;;;;13.20;11.90;;;18.30;99.90;;;;;;6072478;23;20496;-84
2021/09/26 19:45:47;;;;;;;11.93;10.77;;;18.30;99.90;;;;;;6072851;23;20466;-83
2021/09/26 19:48:14;;;;;;;12.80;11.50;;;18.40;99.90;;;;;;6073643;23;20419;-84
2021/09/26 19:50:43;;;;;;;14.50;13.10;;;18.40;99.90;;;;;;6071939;23;20414;-83
2021/09/26 19:53:12;;;;;;;11.90;10.80;;;18.30;99.90;;;;;;6072521;23;20459;-84
2021/09/26 19:55:40;;;;;;;13.80;12.63;;;18.30;99.90;;;;;;6071116;23;20488;-83
2021/09/26 19:58:07;;;;;;;14.00;12.50;;;18.40;99.90;;;;;;6071789;23;20469;-84
2021/09/26 20:00:37;;;;;;;13.57;12.27;;;18.40;99.90;;;;;;6072331;23;20420;-84
2021/09/26 20:03:08;;;;;;;13.27;11.87;;;18.30;99.90;;;;;;6072592;23;20459;-84
2021/09/26 20:05:35;;;;;;;14.90;13.40;;;18.30;99.90;;;;;;6071881;23;20396;-84
2021/09/26 20:08:06;;;;;;;13.10;11.90;;;18.30;99.90;;;;;;6072297;23;20750;-84
2021/09/26 20:10:35;;;;;;;14.03;12.73;;;18.30;99.90;;;;;;6071364;23;20400;-85
2021/09/26 20:13:03;;;;;;;14.03;12.60;;;18.30;99.90;;;;;;6072009;23;20444;-84
2021/09/26 20:15:34;;;;;;;12.47;11.37;;;18.20;99.90;;;;;;6071188;23;20535;-83
2021/09/26 20:18:00;;;;;;;13.10;11.90;;;18.20;99.90;;;;;;6072208;23;20436;-85
2021/09/26 20:20:29;;;;;;;12.77;11.47;;;18.20;99.90;;;;;;6072061;23;20420;-85
2021/09/26 20:22:56;;;;;;;14.43;12.93;;;18.20;99.90;;;;;;6071741;23;20436;-83
2021/09/26 20:25:25;;;;;;;14.23;12.83;;;18.10;99.90;;;;;;6071235;23;20412;-84
2021/09/26 20:27:52;;;;;;;15.77;13.40;;;18.10;99.90;;;;;;6071653;23;20412;-85
2021/09/26 20:30:21;;;;;;;15.10;13.53;;;18.10;99.90;;;;;;6072104;23;20417;-85
2021/09/26 20:32:49;;;;;;;15.60;14.10;;;18.10;99.90;;;;;;6071754;23;20970;-84
2021/09/26 20:35:18;;;;;;;15.50;13.90;;;18.00;99.90;;;;;;6071833;23;20452;-83
2021/09/26 20:37:46;;;;;;;14.90;13.30;;;18.00;99.90;;;;;;6071700;23;20426;-85
2021/09/26 20:40:16;;;;;;;15.50;13.97;;;18.00;99.90;;;;;;6071520;23;20414;-84
2021/09/26 20:42:44;;;;;;;16.10;14.47;;;18.00;99.90;;;;;;6070217;23;20456;-85
2021/09/26 20:45:15;;;;;;;13.70;12.33;;;18.00;99.90;;;;;;6075307;23;20409;-86
2021/09/26 20:47:42;;;;;;;15.70;14.10;;;18.00;99.90;;;;;;6077945;23;20488;-85
2021/09/26 20:50:12;;;;;;;13.70;12.40;;;17.90;99.90;;;;;;6077179;23;20427;-85
2021/09/26 20:52:42;;;;;;;13.13;11.93;;;17.90;99.90;;;;;;6075182;23;20446;-85
2021/09/26 20:55:15;;;;;;;15.10;13.60;;;17.80;99.90;;;;;;6074730;23;20511;-84
2021/09/26 20:57:42;;;;;;;16.87;15.17;;;17.80;99.90;;;;;;6075894;23;20408;-85
2021/09/26 21:00:13;;;;;;;14.00;12.60;;;17.80;99.90;;;;;;6075623;23;20422;-84
2021/09/26 21:02:40;;;;;;;14.10;12.80;;;17.80;99.90;;;;;;6075243;23;20805;-86
2021/09/26 21:05:08;;;;;;;16.80;14.40;;;17.80;99.90;;;;;;6075319;23;20412;-85
2021/09/26 21:07:35;;;;;;;13.83;12.53;;;17.70;99.90;;;;;;6075515;23;20411;-84
2021/09/26 21:10:04;;;;;;;14.10;12.80;;;17.70;99.90;;;;;;6075300;23;20420;-85
2021/09/26 21:12:34;;;;;;;15.93;14.43;;;17.70;99.90;;;;;;6074767;23;20465;-85
2021/09/26 21:15:01;;;;;;;18.63;13.50;;;17.70;99.90;;;;;;6075524;23;20436;-85
2021/09/26 21:17:30;;;;;;;15.50;14.00;;;17.70;99.90;;;;;;6074932;23;20420;-85
2021/09/26 21:19:57;;;;;;;15.53;13.93;;;17.60;99.90;;;;;;6075192;23;20463;-85
2021/09/26 21:22:24;;;;;;;17.30;15.47;;;17.40;99.90;;;;;;6074230;23;20435;-85
2021/09/26 21:24:51;;;;;;;14.97;13.43;;;17.30;99.90;;;;;;6074398;23;20415;-84
2021/09/26 21:27:17;;;;;;;14.90;13.40;;;17.30;99.90;;;;;;6073519;23;20426;-85
2021/09/26 21:29:46;;;;;;;14.50;13.10;;;17.40;99.90;;;;;;6074781;23;20424;-84
2021/09/26 21:32:13;;;;;;;14.20;12.70;;;17.40;99.90;;;;;;6073743;23;20440;-85
2021/09/26 21:34:40;;;;;;;15.40;13.83;;;17.40;99.90;;;;;;6076205;23;20468;-85
2021/09/26 21:37:06;;;;;;;14.50;13.10;;;17.40;99.90;;;;;;6075683;23;20417;-85
2021/09/26 21:39:33;;;;;;;16.33;14.73;;;17.50;99.90;;;;;;6082801;23;21082;-84
2021/09/26 21:42:00;;;;;;;15.77;13.63;;;17.50;99.90;;;;;;6082950;23;20470;-84
2021/09/26 21:44:27;;;;;;;15.10;13.50;;;17.50;99.90;;;;;;6085207;23;20418;-83
2021/09/26 21:46:55;;;;;;;15.00;13.40;;;17.50;99.90;;;;;;6085391;23;20436;-83
2021/09/26 21:49:22;;;;;;;16.60;13.60;;;17.50;99.90;;;;;;6084672;23;20412;-82
2021/09/26 21:51:49;;;;;;;17.40;14.40;;;17.60;99.90;;;;;;6085198;23;20459;-82
2021/09/26 21:54:15;;;;;;;15.20;13.50;;;17.50;99.90;;;;;;6084746;23;20638;-82
2021/09/26 21:56:42;;;;;;;18.13;13.70;;;17.60;99.90;;;;;;6085104;23;20462;-85
2021/09/26 21:59:12;;;;;;;21.67;16.33;;;17.50;99.90;;;;;;6083963;23;20479;-85
2021/09/26 22:01:39;;;;;;;18.40;15.30;;;17.50;99.90;;;;;;6084452;23;20440;-85
2021/09/26 22:04:07;;;;;;;15.77;14.33;;;17.60;99.90;;;;;;6082539;23;20426;-82
2021/09/26 22:06:34;;;;;;;16.77;15.00;;;17.60;99.90;;;;;;6083176;23;20587;-83
2021/09/26 22:09:08;;;;;;;16.20;14.60;;;17.60;99.90;;;;;;6081995;23;20408;-82
